Time;durP1;ratioP1;P1;durP2;ratioP2;P2;SDS_P1;SDS_P2;PMS_P1;PMS_P2;Temp;Humidity;BMP_temperature;BMP_pressure;BME280_temperature;BME280_humidity;BME280_pressure;Samples;Min_cycle;Max_cycle;Signal;HPM_P1;HPM_P2
2023/05/31 00:01:57;;;;;;;3.58;1.73;;;;;;;21.08;33.17;102190.25;5037877;27;96755;-63
2023/05/31 00:04:24;;;;;;;8.00;1.65;;;;;;;21.05;33.25;102187.75;5035390;27;98752;-63
2023/05/31 00:06:51;;;;;;;7.60;1.63;;;;;;;21.00;33.09;102194.34;5039815;27;98993;-62
2023/05/31 00:09:17;;;;;;;4.93;1.70;;;;;;;20.96;33.36;102195.44;5029894;27;96905;-64
2023/05/31 00:11:43;;;;;;;8.52;1.48;;;;;;;20.82;33.69;102185.47;5044650;27;97023;-62
2023/05/31 00:14:10;;;;;;;4.50;1.60;;;;;;;20.83;33.54;102192.59;5031890;27;99655;-63
2023/05/31 00:16:37;;;;;;;4.88;1.85;;;;;;;20.69;33.83;102189.78;5036639;27;99424;-63
2023/05/31 00:19:03;;;;;;;5.78;1.83;;;;;;;20.72;33.67;102195.00;5039710;27;96742;-62
2023/05/31 00:21:31;;;;;;;3.38;1.40;;;;;;;20.78;33.43;102200.03;5034720;27;97280;-62
2023/05/31 00:23:58;;;;;;;3.35;1.65;;;;;;;20.75;33.71;102193.94;5031962;27;99023;-62
2023/05/31 00:26:24;;;;;;;4.00;1.92;;;;;;;20.80;33.74;102186.53;5039686;27;99185;-62
2023/05/31 00:28:51;;;;;;;4.45;1.63;;;;;;;20.65;33.94;102186.41;5033879;27;98410;-62
2023/05/31 00:31:17;;;;;;;3.88;1.48;;;;;;;20.48;34.18;102188.28;5028871;27;96984;-62
2023/05/31 00:33:44;;;;;;;4.30;1.55;;;;;;;20.29;34.41;102186.53;5029907;27;98017;-62
2023/05/31 00:36:11;;;;;;;3.55;1.50;;;;;;;20.47;34.46;102183.88;5030113;27;99018;-63
2023/05/31 00:38:38;;;;;;;5.43;2.35;;;;;;;20.36;34.71;102183.56;5033868;27;97002;-63
2023/05/31 00:41:05;;;;;;;4.38;1.65;;;;;;;20.39;34.57;102180.72;5030464;27;97213;-62
2023/05/31 00:43:31;;;;;;;4.75;1.58;;;;;;;20.43;34.17;102188.53;5034546;27;97917;-62
2023/05/31 00:45:58;;;;;;;4.15;2.00;;;;;;;20.43;34.38;102187.66;5027924;27;98869;-62
2023/05/31 00:48:24;;;;;;;5.82;1.63;;;;;;;20.35;34.37;102188.06;5034737;27;101330;-62
2023/05/31 00:50:50;;;;;;;7.95;1.80;;;;;;;20.39;34.43;102184.28;5032269;27;97282;-61
2023/05/31 00:53:18;;;;;;;2.10;1.48;;;;;;;20.45;34.38;102183.06;5028359;27;99204;-62
2023/05/31 00:55:46;;;;;;;7.07;1.42;;;;;;;20.29;34.58;102183.84;5027252;27;98991;-62
2023/05/31 00:58:12;;;;;;;3.65;1.65;;;;;;;20.34;34.30;102185.47;5028770;27;98910;-62
2023/05/31 01:00:39;;;;;;;6.78;1.50;;;;;;;20.30;34.38;102185.59;5029327;27;97681;-63
2023/05/31 01:03:08;;;;;;;3.75;1.50;;;;;;;20.23;34.30;102194.91;5031735;27;100003;-63
2023/05/31 01:05:35;;;;;;;2.53;1.20;;;;;;;20.18;34.48;102188.94;5031504;27;98959;-63
2023/05/31 01:08:02;;;;;;;2.95;1.60;;;;;;;20.20;34.45;102192.41;5031498;27;96879;-63
2023/05/31 01:10:29;;;;;;;4.95;1.50;;;;;;;20.20;34.38;102197.78;5033385;27;96830;-62
2023/05/31 01:13:06;;;;;;;5.40;2.15;;;;;;;20.05;34.75;102184.28;5038179;27;99383;-63
2023/05/31 01:15:39;;;;;;;6.75;1.95;;;;;;;20.06;34.61;102194.09;5024791;27;98890;-61
2023/05/31 01:18:18;;;;;;;4.25;1.40;;;;;;;20.11;34.45;102189.34;5025124;27;97021;-63
2023/05/31 01:20:46;;;;;;;9.00;1.73;;;;;;;20.03;34.53;102192.41;5029513;27;97142;-62
2023/05/31 01:23:33;;;;;;;4.68;2.03;;;;;;;19.96;35.07;102184.75;5027682;27;99144;-62
2023/05/31 01:26:13;;;;;;;3.03;1.63;;;;;;;19.93;34.99;102192.97;5029261;27;98904;-62
2023/05/31 01:28:42;;;;;;;3.90;1.98;;;;;;;19.89;35.29;102189.56;5028401;27;96867;-61
2023/05/31 01:31:12;;;;;;;6.50;2.28;;;;;;;19.90;35.04;102194.00;5029704;27;97208;-63
2023/05/31 01:33:39;;;;;;;3.80;1.85;;;;;;;19.87;35.14;102197.72;5029251;27;99143;-62
2023/05/31 01:36:06;;;;;;;2.88;1.30;;;;;;;19.89;35.27;102201.19;5033708;27;98109;-62
2023/05/31 01:38:32;;;;;;;4.25;1.58;;;;;;;19.78;35.44;102194.63;5029373;27;97278;-62
2023/05/31 01:40:59;;;;;;;4.40;1.50;;;;;;;19.73;35.46;102191.31;5034929;27;97469;-63
2023/05/31 01:43:27;;;;;;;7.28;2.22;;;;;;;19.68;35.49;102198.75;5033351;27;98901;-62
2023/05/31 01:45:56;;;;;;;3.47;1.55;;;;;;;19.81;35.48;102194.50;5036088;27;99266;-61
2023/05/31 01:48:23;;;;;;;4.38;2.13;;;;;;;19.76;35.38;102196.50;5033355;27;96936;-62
2023/05/31 01:50:52;;;;;;;4.68;2.00;;;;;;;19.65;35.75;102196.19;5027242;27;97054;-62
2023/05/31 01:53:18;;;;;;;4.47;1.75;;;;;;;19.62;35.80;102193.69;5026104;27;98979;-62
2023/05/31 01:55:45;;;;;;;4.57;1.40;;;;;;;19.72;35.51;102205.69;5027067;27;98914;-61
2023/05/31 01:58:13;;;;;;;5.68;1.75;;;;;;;19.61;35.68;102200.00;5031835;27;97159;-61
2023/05/31 02:00:41;;;;;;;6.47;1.83;;;;;;;19.57;35.80;102201.06;5033625;27;96844;-61
2023/05/31 02:03:09;;;;;;;5.88;1.70;;;;;;;19.18;36.42;102194.03;5030757;27;101768;-62
2023/05/31 02:05:35;;;;;;;4.45;1.58;;;;;;;19.40;36.12;102193.84;5034759;27;99396;-61
2023/05/31 02:08:02;;;;;;;4.65;1.42;;;;;;;19.53;35.78;102196.81;5028740;27;97352;-63
2023/05/31 02:10:28;;;;;;;6.25;1.73;;;;;;;19.39;36.27;102194.78;5035832;27;96818;-62
2023/05/31 02:12:55;;;;;;;5.32;1.75;;;;;;;19.41;36.17;102196.47;5029289;27;98930;-62
2023/05/31 02:15:23;;;;;;;3.05;1.70;;;;;;;19.37;36.23;102196.66;5034980;27;97729;-63
2023/05/31 02:17:50;;;;;;;8.07;1.60;;;;;;;19.40;36.25;102194.72;5032241;27;96858;-61
2023/05/31 02:20:18;;;;;;;7.47;1.92;;;;;;;19.22;36.39;102195.63;5030659;27;98085;-61
2023/05/31 02:22:46;;;;;;;2.13;1.48;;;;;;;19.33;36.31;102198.66;5031027;27;97933;-61
2023/05/31 02:25:14;;;;;;;3.95;1.60;;;;;;;19.23;36.58;102200.03;5027061;27;98757;-61
2023/05/31 02:27:41;;;;;;;5.50;1.38;;;;;;;19.21;36.59;102201.06;5032341;27;96851;-62
2023/05/31 02:30:09;;;;;;;6.38;2.03;;;;;;;19.28;36.66;102197.13;5035343;27;97448;-62
2023/05/31 02:32:37;;;;;;;4.63;2.00;;;;;;;19.19;36.56;102189.53;5030755;27;99529;-63
2023/05/31 02:35:05;;;;;;;4.60;1.65;;;;;;;19.15;36.49;102198.69;5038923;27;99179;-61
2023/05/31 02:37:33;;;;;;;4.00;1.98;;;;;;;19.09;36.69;102195.34;5031704;27;98360;-61
2023/05/31 02:39:59;;;;;;;5.32;1.85;;;;;;;19.05;36.92;102199.09;5037974;27;96892;-62
2023/05/31 02:42:26;;;;;;;6.05;1.70;;;;;;;19.03;36.88;102195.63;5029236;27;98892;-61
2023/05/31 02:44:52;;;;;;;4.75;2.03;;;;;;;19.07;36.55;102191.88;5033740;27;99378;-62
2023/05/31 02:47:18;;;;;;;4.43;1.60;;;;;;;19.08;36.62;102192.75;5031011;27;96908;-63
2023/05/31 02:49:45;;;;;;;4.38;1.90;;;;;;;19.05;36.88;102188.38;5033975;27;98158;-64
2023/05/31 02:52:11;;;;;;;3.42;1.60;;;;;;;19.07;36.70;102197.22;5029774;27;102119;-62
2023/05/31 02:54:39;;;;;;;6.15;1.65;;;;;;;18.94;37.10;102192.53;5036999;27;99434;-62
2023/05/31 02:57:05;;;;;;;3.75;1.70;;;;;;;18.85;37.06;102198.31;5032526;27;96757;-62
2023/05/31 02:59:31;;;;;;;7.47;2.08;;;;;;;19.03;36.92;102197.47;5038526;27;96962;-62
2023/05/31 03:01:58;;;;;;;6.70;1.90;;;;;;;19.07;36.80;102191.00;5033814;27;99057;-62
2023/05/31 03:04:25;;;;;;;4.95;1.83;;;;;;;19.02;37.07;102187.69;5034003;27;99345;-62
2023/05/31 03:06:52;;;;;;;4.55;1.52;;;;;;;19.10;36.87;102191.72;5034963;27;98421;-62
2023/05/31 03:09:18;;;;;;;2.60;1.50;;;;;;;18.89;36.98;102190.09;5029399;27;96928;-62
2023/05/31 03:11:46;;;;;;;4.20;2.00;;;;;;;18.99;36.73;102193.16;5035128;27;98543;-62
2023/05/31 03:14:13;;;;;;;2.83;1.60;;;;;;;19.02;36.87;102190.38;5027687;27;98845;-63
2023/05/31 03:16:39;;;;;;;2.53;1.40;;;;;;;18.82;37.14;102185.09;5038080;27;96903;-62
2023/05/31 03:19:05;;;;;;;8.88;1.80;;;;;;;18.88;37.12;102193.69;5034494;27;96841;-62
2023/05/31 03:21:32;;;;;;;2.70;1.70;;;;;;;18.83;37.10;102195.72;5030135;27;99270;-62
2023/05/31 03:23:58;;;;;;;5.43;1.52;;;;;;;18.68;37.48;102197.31;5032905;27;98690;-62
2023/05/31 03:26:25;;;;;;;5.72;2.03;;;;;;;18.71;37.42;102199.81;5035645;27;96795;-63
2023/05/31 03:28:53;;;;;;;5.13;1.52;;;;;;;18.74;37.37;102193.47;5037594;27;97292;-62
2023/05/31 03:31:19;;;;;;;4.95;1.65;;;;;;;18.76;37.17;102188.06;5035160;27;98968;-61
2023/05/31 03:33:46;;;;;;;6.95;1.75;;;;;;;18.70;37.38;102192.75;5038748;27;99005;-63
2023/05/31 03:36:12;;;;;;;4.15;1.80;;;;;;;18.87;37.10;102191.97;5039249;27;102226;-62
2023/05/31 03:38:38;;;;;;;4.95;1.55;;;;;;;18.62;37.32;102191.38;5039502;27;96963;-61
2023/05/31 03:41:05;;;;;;;4.35;1.55;;;;;;;18.84;36.88;102186.72;5028314;27;99010;-62
2023/05/31 03:43:31;;;;;;;6.55;1.60;;;;;;;18.79;37.15;102195.91;5030059;27;99440;-61
2023/05/31 03:46:00;;;;;;;4.75;1.75;;;;;;;18.79;36.94;102188.75;5036209;27;97685;-62
2023/05/31 03:48:27;;;;;;;3.05;1.90;;;;;;;18.76;36.91;102186.25;5037828;27;97131;-62
2023/05/31 03:50:53;;;;;;;6.25;1.85;;;;;;;18.89;36.57;102187.41;5035558;27;97563;-62
2023/05/31 03:53:20;;;;;;;5.00;2.03;;;;;;;18.83;36.77;102192.19;5037311;27;102196;-62
2023/05/31 03:55:46;;;;;;;6.22;2.38;;;;;;;18.88;36.68;102191.03;5047822;27;96913;-61
2023/05/31 03:58:13;;;;;;;6.25;1.85;;;;;;;18.90;36.75;102189.16;5030855;27;97519;-62
2023/05/31 04:00:40;;;;;;;6.35;2.08;;;;;;;18.95;36.52;102186.25;5032118;27;99103;-63
2023/05/31 04:03:11;;;;;;;6.70;2.28;;;;;;;19.05;36.75;102193.75;5028648;27;98968;-62
2023/05/31 04:05:38;;;;;;;4.82;1.77;;;;;;;19.16;36.08;102179.84;5039834;27;100533;-63
2023/05/31 04:08:04;;;;;;;4.60;1.80;;;;;;;19.19;36.12;102185.03;5032772;27;97295;-62
2023/05/31 04:10:31;;;;;;;7.43;2.00;;;;;;;19.03;36.73;102182.22;5039255;27;99169;-62
2023/05/31 04:12:57;;;;;;;6.28;2.00;;;;;;;19.14;36.35;102187.09;5035480;27;98753;-62
2023/05/31 04:15:24;;;;;;;2.83;1.60;;;;;;;19.17;36.47;102181.56;5028172;27;97168;-63
2023/05/31 04:17:50;;;;;;;5.72;2.15;;;;;;;19.40;35.89;102184.00;5033297;27;100948;-62
2023/05/31 04:20:18;;;;;;;4.30;1.92;;;;;;;19.38;36.10;102185.88;5031721;27;99686;-63
2023/05/31 04:22:44;;;;;;;4.30;2.00;;;;;;;19.62;35.83;102178.47;5032569;27;99229;-63
2023/05/31 04:25:12;;;;;;;5.38;1.80;;;;;;;19.65;35.64;102182.78;5033839;27;96860;-62
2023/05/31 04:27:40;;;;;;;4.95;2.17;;;;;;;19.71;35.45;102186.03;5032955;27;96870;-62
2023/05/31 04:30:07;;;;;;;6.70;2.35;;;;;;;19.75;35.61;102186.75;5033836;27;99300;-62
2023/05/31 04:32:34;;;;;;;2.92;2.00;;;;;;;19.90;34.99;102178.78;5032509;27;100664;-62
2023/05/31 04:35:03;;;;;;;7.07;2.50;;;;;;;19.78;35.52;102186.59;5036485;27;96808;-66
2023/05/31 04:37:31;;;;;;;9.93;2.40;;;;;;;19.92;35.36;102194.78;5031271;27;97081;-62
2023/05/31 04:39:57;;;;;;;6.45;2.10;;;;;;;19.96;35.12;102188.31;5033853;27;100857;-63
2023/05/31 04:42:25;;;;;;;7.82;2.72;;;;;;;20.18;34.54;102193.44;5035260;27;99104;-62
2023/05/31 04:44:51;;;;;;;6.65;2.40;;;;;;;20.27;34.54;102193.84;5027584;27;96918;-63
2023/05/31 04:47:19;;;;;;;5.57;2.05;;;;;;;20.24;34.57;102191.28;5032610;27;96887;-63
2023/05/31 04:49:45;;;;;;;14.23;3.72;;;;;;;20.33;34.03;102181.94;5033462;27;99030;-64
2023/05/31 04:52:12;;;;;;;12.50;2.70;;;;;;;20.44;34.01;102187.56;5031036;27;99090;-62
2023/05/31 04:54:40;;;;;;;7.82;2.45;;;;;;;20.53;33.88;102183.53;5039566;27;96906;-62
2023/05/31 04:57:07;;;;;;;14.30;3.05;;;;;;;21.20;33.39;102191.41;5028627;27;97043;-62
2023/05/31 04:59:34;;;;;;;7.15;2.80;;;;;;;22.87;31.00;102192.00;5033141;27;99368;-62
2023/05/31 05:02:01;;;;;;;4.88;2.08;;;;;;;24.64;27.92;102191.63;5035378;27;98821;-63
2023/05/31 05:04:27;;;;;;;3.67;1.83;;;;;;;25.57;26.14;102184.72;5029818;27;97245;-62
2023/05/31 05:06:54;;;;;;;4.15;2.40;;;;;;;24.92;26.80;102188.69;5030518;27;97184;-62
2023/05/31 05:09:21;;;;;;;9.05;2.65;;;;;;;24.42;27.61;102189.56;5030883;27;99505;-62
2023/05/31 05:11:48;;;;;;;5.10;2.33;;;;;;;24.49;27.30;102193.56;5027240;27;99168;-62
2023/05/31 05:14:15;;;;;;;12.40;2.60;;;;;;;25.15;26.73;102186.09;5037567;27;97623;-62
2023/05/31 05:16:41;;;;;;;7.60;2.30;;;;;;;24.74;26.84;102190.00;5036880;27;97220;-63
2023/05/31 05:19:07;;;;;;;6.18;2.78;;;;;;;24.12;27.67;102184.47;5030477;27;98905;-62
2023/05/31 05:21:34;;;;;;;8.75;2.17;;;;;;;23.82;28.15;102181.22;5031537;27;100668;-62
2023/05/31 05:24:01;;;;;;;7.60;2.30;;;;;;;23.55;28.60;102183.06;5026060;27;97845;-63
2023/05/31 05:26:28;;;;;;;9.50;3.10;;;;;;;23.47;28.77;102185.38;5039314;27;97227;-62
2023/05/31 05:28:55;;;;;;;8.07;2.50;;;;;;;23.06;29.47;102188.97;5039601;27;99233;-62
2023/05/31 05:31:22;;;;;;;11.68;4.00;;;;;;;22.51;30.30;102189.75;5032088;27;97961;-63
2023/05/31 05:33:48;;;;;;;12.68;2.80;;;;;;;22.97;29.62;102184.19;5040744;27;97423;-63
2023/05/31 05:36:15;;;;;;;8.75;2.03;;;;;;;23.07;29.51;102176.38;5030622;27;96882;-62
2023/05/31 05:38:41;;;;;;;8.00;2.50;;;;;;;22.85;29.58;102175.06;5029818;27;97631;-62
2023/05/31 05:41:10;;;;;;;10.07;2.25;;;;;;;22.75;29.57;102181.16;5040841;27;98016;-62
2023/05/31 05:43:37;;;;;;;7.53;2.72;;;;;;;22.72;29.65;102174.06;5037898;27;97041;-61
2023/05/31 05:46:05;;;;;;;7.15;2.47;;;;;;;22.85;29.58;102176.88;5036036;27;96829;-61
2023/05/31 05:48:33;;;;;;;7.88;2.30;;;;;;;22.77;29.50;102179.22;5028578;27;99714;-61
2023/05/31 05:50:59;;;;;;;8.82;2.83;;;;;;;22.75;29.64;102178.44;5039039;27;99613;-61
2023/05/31 05:53:26;;;;;;;9.45;2.35;;;;;;;22.75;30.04;102179.31;5037927;27;96795;-61
2023/05/31 05:55:53;;;;;;;11.30;2.38;;;;;;;22.87;29.65;102177.66;5037820;27;96790;-63
2023/05/31 05:58:21;;;;;;;8.43;2.58;;;;;;;22.98;29.63;102173.28;5036248;27;97907;-61
2023/05/31 06:00:48;;;;;;;11.85;2.45;;;;;;;22.94;29.60;102177.16;5038612;27;98754;-61
2023/05/31 06:03:16;;;;;;;8.13;2.40;;;;;;;23.17;29.35;102172.94;5033079;27;97781;-65
2023/05/31 06:05:42;;;;;;;15.23;3.05;;;;;;;23.19;29.17;102176.41;5031573;27;97357;-65
2023/05/31 06:08:09;;;;;;;10.90;2.60;;;;;;;23.02;29.43;102169.47;5028436;27;99648;-65
2023/05/31 06:10:36;;;;;;;12.65;2.38;;;;;;;23.11;29.43;102178.75;5027703;27;98774;-65
2023/05/31 06:13:02;;;;;;;10.07;2.75;;;;;;;23.45;28.99;102178.25;5032397;27;96856;-65
2023/05/31 06:15:29;;;;;;;24.00;3.00;;;;;;;23.91;28.79;102185.09;5036278;27;96962;-66
2023/05/31 06:17:55;;;;;;;12.45;3.60;;;;;;;23.69;28.54;102174.91;5032601;27;98998;-66
2023/05/31 06:20:23;;;;;;;9.77;2.50;;;;;;;23.60;28.39;102175.53;5034149;27;98995;-66
2023/05/31 06:22:51;;;;;;;10.18;2.38;;;;;;;23.43;28.63;102176.66;5039445;27;98177;-65
2023/05/31 06:25:58;;;;;;;10.32;2.47;;;;;;;23.61;28.73;102182.66;5036111;27;96863;-65
2023/05/31 06:28:25;;;;;;;14.60;2.50;;;;;;;23.65;28.97;102179.63;5028224;27;99172;-65
2023/05/31 06:30:51;;;;;;;12.90;2.28;;;;;;;24.05;28.53;102174.19;5034805;27;98926;-65
2023/05/31 06:33:18;;;;;;;9.50;2.50;;;;;;;24.16;28.21;102179.72;5033972;27;97914;-65
2023/05/31 06:35:45;;;;;;;11.68;2.42;;;;;;;24.48;28.18;102174.78;5043006;27;97293;-65
2023/05/31 06:38:14;;;;;;;9.05;2.70;;;;;;;24.60;27.79;102174.78;5037407;27;99095;-65
2023/05/31 06:40:41;;;;;;;13.30;2.45;;;;;;;24.63;27.62;102168.25;5033529;27;99420;-68
2023/05/31 06:43:08;;;;;;;8.73;3.00;;;;;;;24.97;27.03;102181.09;5036834;27;96837;-65
2023/05/31 06:45:34;;;;;;;6.22;2.58;;;;;;;25.32;26.39;102172.22;5034233;27;96855;-66
2023/05/31 06:48:00;;;;;;;18.67;2.83;;;;;;;25.14;26.86;102173.59;5034597;27;99397;-66
2023/05/31 06:50:27;;;;;;;18.52;4.10;;;;;;;25.27;27.07;102171.69;5039588;27;98234;-67
2023/05/31 06:52:55;;;;;;;9.80;2.35;;;;;;;25.48;26.61;102169.19;5039807;27;96830;-66
2023/05/31 06:55:21;;;;;;;12.40;2.53;;;;;;;25.77;26.29;102168.72;5033712;27;97167;-65
2023/05/31 06:57:48;;;;;;;13.55;1.98;;;;;;;26.01;26.08;102165.94;5030193;27;99425;-66
2023/05/31 07:00:15;;;;;;;13.70;2.80;;;;;;;25.30;26.55;102171.44;5034915;27;99098;-65
2023/05/31 07:02:42;;;;;;;14.10;2.72;;;;;;;25.23;26.63;102167.47;5033718;27;98086;-65
2023/05/31 07:05:08;;;;;;;12.07;2.92;;;;;;;24.61;27.55;102168.38;5037368;27;96863;-66
2023/05/31 07:07:35;;;;;;;7.43;2.40;;;;;;;25.06;27.01;102166.03;5040164;27;98988;-65
2023/05/31 07:10:03;;;;;;;14.82;2.70;;;;;;;25.21;26.76;102164.88;5039028;27;99327;-66
2023/05/31 07:12:29;;;;;;;10.15;2.45;;;;;;;25.20;26.79;102167.72;5041666;27;96881;-66
2023/05/31 07:14:56;;;;;;;7.63;2.35;;;;;;;24.98;27.21;102158.50;5038211;27;97079;-66
2023/05/31 07:17:22;;;;;;;7.13;3.08;;;;;;;24.75;27.62;102156.56;5027046;27;101270;-66
2023/05/31 07:19:49;;;;;;;11.50;2.20;;;;;;;24.82;27.53;102159.69;5042159;27;99990;-65
2023/05/31 07:22:17;;;;;;;7.00;2.53;;;;;;;25.59;26.27;102148.50;5042515;27;96769;-66
2023/05/31 07:24:43;;;;;;;7.95;2.42;;;;;;;25.16;26.72;102141.84;5037142;27;97035;-65
2023/05/31 07:27:11;;;;;;;12.10;2.90;;;;;;;24.97;27.20;102143.22;5031927;27;100502;-66
2023/05/31 07:29:40;;;;;;;11.82;3.72;;;;;;;25.41;27.11;102141.72;5035305;27;98760;-66
2023/05/31 07:32:07;;;;;;;10.07;2.90;;;;;;;24.94;26.85;102145.31;5038796;27;96777;-65
2023/05/31 07:34:33;;;;;;;12.10;2.67;;;;;;;25.32;26.59;102140.59;5031447;27;96908;-66
2023/05/31 07:37:00;;;;;;;10.13;2.95;;;;;;;25.35;26.39;102134.06;5037736;27;98793;-66
2023/05/31 07:39:26;;;;;;;9.38;2.65;;;;;;;25.10;27.04;102139.59;5032642;27;97565;-66
2023/05/31 07:41:52;;;;;;;10.43;3.22;;;;;;;25.52;26.67;102140.94;5034780;27;97365;-66
2023/05/31 07:44:22;;;;;;;48.25;4.47;;;;;;;25.70;25.91;102137.69;5033787;27;96926;-66
2023/05/31 07:46:48;;;;;;;7.22;2.58;;;;;;;25.80;26.20;102133.28;5032257;27;103768;-66
2023/05/31 07:49:14;;;;;;;20.08;3.63;;;;;;;26.06;25.90;102130.38;5033174;27;99271;-66
2023/05/31 07:51:41;;;;;;;7.45;2.65;;;;;;;25.99;25.22;102129.16;5038477;27;96915;-66
2023/05/31 07:54:07;;;;;;;10.73;2.40;;;;;;;25.13;24.79;102134.84;5045024;27;98089;-66
2023/05/31 07:56:34;;;;;;;9.00;1.95;;;;;;;25.56;24.45;102127.03;5030762;27;99111;-66
2023/05/31 07:59:00;;;;;;;9.45;2.63;;;;;;;26.14;24.11;102127.94;5048824;27;98173;-66
2023/05/31 08:01:28;;;;;;;9.45;2.97;;;;;;;26.50;24.12;102130.44;5029873;27;96850;-66
2023/05/31 08:03:55;;;;;;;5.57;2.30;;;;;;;26.45;24.83;102135.34;5020902;27;98495;-66
2023/05/31 08:06:22;;;;;;;12.30;2.92;;;;;;;26.59;24.45;102129.69;5028940;27;99112;-66
2023/05/31 08:08:48;;;;;;;5.15;2.47;;;;;;;26.83;24.35;102131.38;5034403;27;98847;-65
2023/05/31 08:11:15;;;;;;;8.15;2.20;;;;;;;26.95;24.00;102133.97;5032745;27;97665;-65
2023/05/31 08:13:41;;;;;;;3.75;1.75;;;;;;;26.14;23.09;102134.22;5032277;27;97282;-65
2023/05/31 08:16:07;;;;;;;6.72;1.73;;;;;;;25.98;23.15;102133.72;5031387;27;100764;-65
2023/05/31 08:18:35;;;;;;;7.47;1.95;;;;;;;26.12;23.57;102119.09;5028569;27;98904;-65
2023/05/31 08:21:02;;;;;;;7.40;2.05;;;;;;;26.69;23.22;102124.38;5029493;27;96862;-66
2023/05/31 08:23:29;;;;;;;8.07;1.75;;;;;;;26.48;23.58;102129.69;5027253;27;97049;-65
2023/05/31 08:25:55;;;;;;;5.95;2.20;;;;;;;26.66;23.84;102121.91;5026955;27;99248;-65
2023/05/31 08:28:22;;;;;;;7.55;2.10;;;;;;;26.31;23.61;102116.66;5029038;27;99085;-65
2023/05/31 08:30:49;;;;;;;6.57;2.15;;;;;;;26.48;23.79;102121.56;5033380;27;97170;-65
2023/05/31 08:33:15;;;;;;;7.00;1.83;;;;;;;26.61;22.54;102121.44;5036517;27;96881;-66
2023/05/31 08:35:43;;;;;;;5.95;1.92;;;;;;;26.81;21.93;102111.66;5028492;27;97746;-65
2023/05/31 08:38:09;;;;;;;5.40;1.83;;;;;;;27.18;21.81;102114.91;5029609;27;98793;-67
2023/05/31 08:40:36;;;;;;;7.97;2.03;;;;;;;26.89;22.54;102120.06;5029904;27;97644;-66
2023/05/31 08:43:09;;;;;;;12.23;1.80;;;;;;;26.57;22.52;102123.53;5029368;27;96774;-66
2023/05/31 08:45:36;;;;;;;8.93;1.77;;;;;;;27.53;21.74;102120.97;5027570;27;99001;-67
2023/05/31 08:48:10;;;;;;;9.02;2.08;;;;;;;27.27;21.71;102115.00;5030861;27;98823;-66
2023/05/31 08:50:37;;;;;;;10.30;1.40;;;;;;;26.85;21.49;102108.56;5026928;27;97043;-66
2023/05/31 08:53:07;;;;;;;5.03;1.73;;;;;;;26.74;21.40;102111.31;5031251;27;100135;-66
2023/05/31 08:55:36;;;;;;;4.43;1.67;;;;;;;26.73;21.13;102111.44;5033772;27;99069;-66
2023/05/31 08:58:03;;;;;;;7.30;1.50;;;;;;;26.81;20.89;102111.66;5029469;27;99502;-66
2023/05/31 09:00:30;;;;;;;6.40;1.50;;;;;;;27.21;20.93;102112.81;5031340;27;96734;-67
2023/05/31 09:02:59;;;;;;;5.80;1.58;;;;;;;27.10;20.93;102106.56;5034932;27;97268;-66
2023/05/31 09:05:25;;;;;;;12.63;1.85;;;;;;;27.37;21.18;102104.25;5035344;27;99680;-66
2023/05/31 09:07:52;;;;;;;8.32;1.92;;;;;;;26.91;22.17;102104.53;5024561;27;99377;-66
2023/05/31 09:10:20;;;;;;;8.48;1.70;;;;;;;26.73;22.10;102098.72;5030757;27;98994;-66
2023/05/31 09:12:46;;;;;;;10.82;1.55;;;;;;;26.61;21.58;102083.47;5027823;27;97469;-66
2023/05/31 09:15:15;;;;;;;2.13;1.25;;;;;;;26.63;21.58;102089.66;5027329;27;99696;-65
2023/05/31 09:17:43;;;;;;;5.28;1.30;;;;;;;26.94;20.99;102086.16;5025665;27;99026;-65
2023/05/31 09:20:11;;;;;;;5.78;1.42;;;;;;;27.24;20.59;102084.56;5029215;27;96746;-66
2023/05/31 09:22:38;;;;;;;2.15;1.33;;;;;;;27.35;20.08;102090.81;5025530;27;97095;-66
2023/05/31 09:25:06;;;;;;;7.03;1.70;;;;;;;27.50;19.81;102083.22;5032952;27;98949;-66
2023/05/31 09:27:37;;;;;;;5.07;1.70;;;;;;;27.66;19.56;102080.03;5022355;27;99864;-66
2023/05/31 09:30:08;;;;;;;5.28;1.77;;;;;;;27.46;20.24;102081.72;5029255;27;96868;-66
2023/05/31 09:32:36;;;;;;;6.72;1.50;;;;;;;27.56;20.16;102077.28;5028621;27;96811;-65
2023/05/31 09:35:11;;;;;;;5.25;1.35;;;;;;;27.59;20.13;102079.72;5027541;27;99138;-66
2023/05/31 09:37:43;;;;;;;5.13;1.30;;;;;;;27.50;20.70;102068.78;5028822;27;98964;-65
2023/05/31 09:40:11;;;;;;;4.13;1.38;;;;;;;26.65;20.91;102065.13;5034191;27;96789;-65
2023/05/31 09:42:38;;;;;;;7.22;2.03;;;;;;;26.88;21.14;102073.06;5032516;27;99420;-65
2023/05/31 09:45:06;;;;;;;5.95;1.40;;;;;;;26.77;21.10;102061.41;5028854;27;99431;-67
2023/05/31 09:47:33;;;;;;;5.60;1.60;;;;;;;27.36;20.75;102059.09;5022571;27;98104;-65
2023/05/31 09:50:02;;;;;;;5.00;1.38;;;;;;;27.58;20.38;102064.41;5031802;27;96752;-66
2023/05/31 09:52:30;;;;;;;5.32;1.42;;;;;;;27.54;20.47;102057.53;5026232;27;97404;-65
2023/05/31 09:54:57;;;;;;;5.00;1.55;;;;;;;27.71;19.89;102064.22;5028504;27;99132;-66
2023/05/31 09:57:31;;;;;;;2.22;1.40;;;;;;;27.32;20.32;102050.34;5026579;27;99293;-65
2023/05/31 10:00:00;;;;;;;3.97;1.38;;;;;;;27.26;20.78;102053.56;5028079;27;96836;-66
2023/05/31 10:02:27;;;;;;;4.00;1.30;;;;;;;27.22;20.54;102048.56;5028588;27;97083;-66
2023/05/31 10:04:55;;;;;;;7.72;1.60;;;;;;;27.77;20.46;102048.22;5024126;27;100817;-66
2023/05/31 10:07:21;;;;;;;7.20;1.52;;;;;;;27.75;20.31;102043.94;5022912;27;98864;-67
2023/05/31 10:09:48;;;;;;;3.97;1.70;;;;;;;27.90;20.51;102050.72;5030853;27;97154;-69
2023/05/31 10:12:18;;;;;;;5.93;1.60;;;;;;;28.18;20.47;102049.19;5027371;27;97045;-67
2023/05/31 10:14:50;;;;;;;2.22;1.17;;;;;;;27.70;20.51;102038.91;5024342;27;99502;-66
2023/05/31 10:17:21;;;;;;;3.58;1.50;;;;;;;27.66;20.66;102042.03;5028011;27;99355;-65
2023/05/31 10:19:55;;;;;;;6.45;1.48;;;;;;;27.68;21.18;102035.47;5024214;27;96823;-66
2023/05/31 10:22:22;;;;;;;3.78;1.40;;;;;;;27.64;20.44;102038.56;5023920;27;96953;-66
2023/05/31 10:24:53;;;;;;;6.93;1.15;;;;;;;27.88;20.34;102030.16;5032153;27;99024;-65
2023/05/31 10:27:31;;;;;;;4.88;1.55;;;;;;;28.03;20.11;102036.91;5037183;27;101753;-65
2023/05/31 10:30:04;;;;;;;4.80;1.10;;;;;;;27.96;20.10;102038.50;5030401;27;97669;-66
2023/05/31 10:32:34;;;;;;;4.00;1.45;;;;;;;27.64;20.40;102025.88;5030237;27;97971;-65
2023/05/31 10:35:01;;;;;;;8.60;1.70;;;;;;;27.99;20.21;102030.06;5027401;27;99545;-65
2023/05/31 10:37:29;;;;;;;8.65;1.65;;;;;;;28.26;20.15;102026.75;5034514;27;98956;-67
2023/05/31 10:40:04;;;;;;;3.75;1.58;;;;;;;28.58;19.66;102018.38;5031289;27;96966;-67
2023/05/31 10:42:38;;;;;;;6.83;1.80;;;;;;;28.08;19.46;102021.97;5030897;27;97404;-67
2023/05/31 10:45:10;;;;;;;6.07;1.38;;;;;;;27.79;19.75;102022.81;5032130;27;98916;-67
2023/05/31 10:47:43;;;;;;;6.22;2.28;;;;;;;27.94;19.74;102016.88;5022975;27;103044;-66
2023/05/31 10:50:13;;;;;;;7.47;2.20;;;;;;;27.75;19.83;102020.38;5029129;27;98184;-67
2023/05/31 10:52:40;;;;;;;5.43;1.30;;;;;;;28.13;19.64;102027.84;5019131;27;96845;-66
2023/05/31 10:55:16;;;;;;;5.18;1.40;;;;;;;28.38;19.15;102014.78;5027684;27;99117;-67
2023/05/31 10:57:42;;;;;;;5.40;1.17;;;;;;;28.47;18.55;102006.66;5020257;27;98987;-66
2023/05/31 11:00:11;;;;;;;3.83;1.10;;;;;;;28.68;18.48;102011.13;5026468;27;96741;-66
2023/05/31 11:02:47;;;;;;;3.53;1.05;;;;;;;28.09;19.16;101999.19;5021546;27;97653;-66
2023/05/31 11:05:21;;;;;;;1.83;0.90;;;;;;;28.19;18.57;101991.13;5027392;27;99247;-66
2023/05/31 11:07:49;;;;;;;3.40;1.20;;;;;;;28.38;18.75;102002.03;5034255;27;98784;-66
2023/05/31 11:10:26;;;;;;;2.10;0.90;;;;;;;28.35;18.39;101994.19;5033377;27;96812;-65
2023/05/31 11:12:53;;;;;;;3.58;1.08;;;;;;;28.32;18.27;101993.59;5034100;27;97852;-66
2023/05/31 11:15:19;;;;;;;1.73;0.90;;;;;;;28.35;18.39;101987.88;5038039;27;99899;-66
2023/05/31 11:17:55;;;;;;;2.97;0.85;;;;;;;28.38;18.43;101987.59;5031795;27;99284;-66
2023/05/31 11:20:22;;;;;;;3.63;0.60;;;;;;;28.01;18.40;101990.91;5035628;27;97078;-66
2023/05/31 11:23:08;;;;;;;2.92;1.00;;;;;;;28.17;18.36;101993.09;5036387;27;97386;-66
2023/05/31 11:25:34;;;;;;;3.50;1.02;;;;;;;27.87;18.55;101990.41;5032858;27;99081;-65
2023/05/31 11:28:07;;;;;;;5.90;0.85;;;;;;;28.16;18.13;101983.22;5028866;27;98845;-65